createdAt,value
2018-02-21T00:01:59.803Z,-2.20
2018-02-21T00:04:27.383Z,-2.20
2018-02-21T00:06:55.260Z,-2.10
2018-02-21T00:09:22.830Z,-2.20
2018-02-21T00:11:51.174Z,-2.40
2018-02-21T00:14:19.054Z,-2.50
2018-02-21T00:16:46.643Z,-2.50
2018-02-21T00:19:14.997Z,-2.70
2018-02-21T00:21:42.622Z,-2.80
2018-02-21T00:24:10.189Z,-2.80
2018-02-21T00:26:37.764Z,-2.80
2018-02-21T00:29:05.366Z,-2.80
2018-02-21T00:31:33.732Z,-2.80
2018-02-21T00:34:02.062Z,-2.90
2018-02-21T00:36:29.727Z,-3.00
2018-02-21T00:38:57.317Z,-2.90
2018-02-21T00:41:26.401Z,-2.80
2018-02-21T00:43:54.354Z,-2.80
2018-02-21T00:46:22.739Z,-2.70
2018-02-21T00:48:51.817Z,-2.80
2018-02-21T00:51:19.433Z,-2.90
2018-02-21T00:53:47.767Z,-2.70
2018-02-21T00:56:15.527Z,-2.80
2018-02-21T00:58:43.105Z,-2.90
2018-02-21T01:01:10.666Z,-2.90
2018-02-21T01:03:38.358Z,-2.70
2018-02-21T01:06:05.954Z,-2.90
2018-02-21T01:08:33.536Z,-2.90
2018-02-21T01:11:01.130Z,-2.80
2018-02-21T01:13:29.460Z,-2.60
2018-02-21T01:15:57.080Z,-2.60
2018-02-21T01:18:24.652Z,-2.50
2018-02-21T01:20:52.219Z,-2.50
2018-02-21T01:23:19.823Z,-2.40
2018-02-21T01:25:48.498Z,-2.20
2018-02-21T01:28:17.583Z,-2.30
2018-02-21T01:30:45.149Z,-2.30
2018-02-21T01:33:14.272Z,-2.20
2018-02-21T01:35:42.624Z,-2.10
2018-02-21T01:38:10.192Z,-2.20
2018-02-21T01:40:38.863Z,-2.10
2018-02-21T01:43:06.434Z,-2.10
2018-02-21T01:45:34.140Z,-2.10
2018-02-21T01:48:02.141Z,-2.10
2018-02-21T01:50:41.591Z,-2.00
2018-02-21T01:53:10.710Z,-2.20
2018-02-21T01:55:39.057Z,-2.20
2018-02-21T01:58:06.645Z,-2.20
2018-02-21T02:00:35.295Z,-2.30
2018-02-21T02:03:02.881Z,-2.40
2018-02-21T02:05:31.225Z,-2.20
2018-02-21T02:07:58.823Z,-2.30
2018-02-21T02:10:27.159Z,-2.30
2018-02-21T02:12:54.762Z,-2.40
2018-02-21T02:15:22.380Z,-2.50
2018-02-21T02:17:49.966Z,-2.40
2018-02-21T02:20:18.385Z,-2.30
2018-02-21T02:22:45.986Z,-2.30
2018-02-21T02:25:13.550Z,-2.40
2018-02-21T02:27:41.123Z,-2.60
2018-02-21T02:30:08.716Z,-2.60
2018-02-21T02:32:36.333Z,-2.60
2018-02-21T02:35:03.927Z,-2.70
2018-02-21T02:37:32.292Z,-2.90
2018-02-21T02:40:01.532Z,-2.90
2018-02-21T02:42:29.107Z,-3.00
2018-02-21T02:44:56.738Z,-2.90
2018-02-21T02:47:24.369Z,-3.00
2018-02-21T02:49:52.706Z,-2.80
2018-02-21T02:52:20.322Z,-2.80
2018-02-21T02:54:47.889Z,-2.70
2018-02-21T02:57:15.498Z,-2.80
2018-02-21T02:59:43.066Z,-2.80
2018-02-21T03:02:10.626Z,-2.70
2018-02-21T03:04:38.241Z,-2.60
2018-02-21T03:07:05.828Z,-2.50
2018-02-21T03:09:33.443Z,-2.50
2018-02-21T03:12:01.387Z,-2.50
2018-02-21T03:14:29.942Z,-2.90
2018-02-21T03:16:57.511Z,-3.00
2018-02-21T03:19:25.873Z,-3.00
2018-02-21T03:21:53.452Z,-3.00
2018-02-21T03:24:21.057Z,-3.10
2018-02-21T03:26:48.924Z,-3.20
2018-02-21T03:29:16.647Z,-3.10
2018-02-21T03:31:44.966Z,-3.20
2018-02-21T03:34:12.853Z,-3.30
2018-02-21T03:36:40.446Z,-3.10
2018-02-21T03:39:09.131Z,-3.00
2018-02-21T03:41:37.506Z,-3.00
2018-02-21T03:44:05.071Z,-3.10
2018-02-21T03:46:33.423Z,-3.10
2018-02-21T03:49:01.036Z,-3.10
2018-02-21T03:51:28.661Z,-3.30
2018-02-21T03:53:56.230Z,-3.40
2018-02-21T03:56:24.619Z,-3.50
2018-02-21T03:58:52.967Z,-3.60
2018-02-21T04:01:20.554Z,-3.70
2018-02-21T04:03:48.936Z,-3.60
2018-02-21T04:06:16.522Z,-3.60
2018-02-21T04:08:44.126Z,-3.50
2018-02-21T04:11:11.731Z,-3.40
2018-02-21T04:13:39.310Z,-3.40
2018-02-21T04:16:06.896Z,-3.20
2018-02-21T04:18:34.501Z,-3.30
2018-02-21T04:21:02.081Z,-3.50
2018-02-21T04:23:29.656Z,-3.70
2018-02-21T04:25:57.654Z,-3.70
2018-02-21T04:28:25.989Z,-3.40
2018-02-21T04:30:53.562Z,-3.40
2018-02-21T04:33:21.450Z,-3.30
2018-02-21T04:35:49.812Z,-3.20
2018-02-21T04:38:17.383Z,-3.30
2018-02-21T04:40:46.485Z,-3.30
2018-02-21T04:43:14.828Z,-3.30
2018-02-21T04:45:42.461Z,-3.30
2018-02-21T04:48:10.322Z,-3.20
2018-02-21T04:50:37.901Z,-3.20
2018-02-21T04:53:05.473Z,-3.20
2018-02-21T04:55:38.731Z,-3.20
2018-02-21T04:58:06.775Z,-3.20
2018-02-21T05:00:35.404Z,-3.30
2018-02-21T05:03:03.020Z,-3.40
2018-02-21T05:05:31.350Z,-3.40
2018-02-21T05:07:58.929Z,-3.50
2018-02-21T05:10:26.533Z,-3.40
2018-02-21T05:12:54.107Z,-3.40
2018-02-21T05:15:21.722Z,-3.60
2018-02-21T05:17:49.356Z,-3.60
2018-02-21T05:20:16.929Z,-3.60
2018-02-21T05:22:44.524Z,-3.60
2018-02-21T05:25:12.919Z,-3.70
2018-02-21T05:27:40.484Z,-3.70
2018-02-21T05:30:08.213Z,-3.70
2018-02-21T05:32:36.541Z,-3.70
2018-02-21T05:35:04.946Z,-3.60
2018-02-21T05:37:33.610Z,-3.50
2018-02-21T05:40:01.460Z,-3.60
2018-02-21T05:42:29.042Z,-3.70
2018-02-21T05:44:56.642Z,-3.90
2018-02-21T05:47:24.989Z,-3.90
2018-02-21T05:49:52.684Z,-4.00
2018-02-21T05:52:20.334Z,-4.10
2018-02-21T05:54:48.686Z,-4.00
2018-02-21T05:57:16.247Z,-4.00
2018-02-21T05:59:44.117Z,-4.00
2018-02-21T06:02:11.689Z,-4.00
2018-02-21T06:04:40.061Z,-4.20
2018-02-21T06:07:07.930Z,-4.30
2018-02-21T06:09:36.279Z,-4.20
2018-02-21T06:12:03.877Z,-4.30
2018-02-21T06:14:32.267Z,-3.90
2018-02-21T06:16:59.967Z,-3.90
2018-02-21T06:19:27.568Z,-3.80
2018-02-21T06:21:55.996Z,-3.70
2018-02-21T06:24:23.854Z,-3.70
2018-02-21T06:26:51.918Z,-3.70
2018-02-21T06:29:19.498Z,-3.70
2018-02-21T06:34:21.054Z,-3.80
2018-02-21T06:36:48.630Z,-3.90
2018-02-21T06:39:16.301Z,-4.00
2018-02-21T06:41:44.088Z,-4.10
2018-02-21T06:44:11.671Z,-4.30
2018-02-21T06:46:40.085Z,-4.60
2018-02-21T06:49:07.729Z,-4.60
2018-02-21T06:51:35.286Z,-4.70
2018-02-21T06:54:02.903Z,-4.70
2018-02-21T06:56:30.532Z,-4.80
2018-02-21T06:58:58.105Z,-4.70
2018-02-21T07:01:25.676Z,-4.50
2018-02-21T07:03:53.649Z,-4.20
2018-02-21T07:06:21.219Z,-3.90
2018-02-21T07:08:48.838Z,-3.80
2018-02-21T07:11:16.707Z,-4.00
2018-02-21T07:13:44.267Z,-3.90
2018-02-21T07:16:11.848Z,-3.70
2018-02-21T07:18:39.467Z,-3.70
2018-02-21T07:21:07.065Z,-3.80
2018-02-21T07:23:34.676Z,-3.80
2018-02-21T07:26:02.267Z,-3.90
2018-02-21T07:28:29.866Z,-3.80
2018-02-21T07:30:58.236Z,-3.60
2018-02-21T07:33:25.910Z,-3.70
2018-02-21T07:35:54.299Z,-3.40
2018-02-21T07:38:21.882Z,-3.50
2018-02-21T07:40:49.478Z,-3.30
2018-02-21T07:43:17.855Z,-3.30
2018-02-21T07:45:45.416Z,-3.30
2018-02-21T07:48:14.692Z,-3.20
2018-02-21T07:50:42.287Z,-3.20
2018-02-21T07:53:10.707Z,-2.80
2018-02-21T07:55:39.237Z,-2.70
2018-02-21T07:58:06.839Z,-2.80
2018-02-21T08:00:34.455Z,-2.60
2018-02-21T08:03:02.189Z,-2.60
2018-02-21T08:05:29.792Z,-2.50
2018-02-21T08:07:58.168Z,-2.50
2018-02-21T08:10:26.511Z,-2.40
2018-02-21T08:12:54.153Z,-2.50
2018-02-21T08:15:21.761Z,-2.30
2018-02-21T08:17:50.125Z,-2.30
2018-02-21T08:20:17.698Z,-2.30
2018-02-21T08:22:45.299Z,-2.10
2018-02-21T08:25:13.405Z,-2.10
2018-02-21T08:27:40.985Z,-2.00
2018-02-21T08:30:09.384Z,-2.00
2018-02-21T08:32:36.957Z,-2.00
2018-02-21T08:35:05.625Z,-1.90
2018-02-21T08:37:34.019Z,-1.80
2018-02-21T08:40:01.894Z,-1.80
2018-02-21T08:42:29.467Z,-1.70
2018-02-21T08:44:57.427Z,-1.60
2018-02-21T08:47:25.005Z,-1.40
2018-02-21T08:49:52.657Z,-1.40
2018-02-21T08:52:20.306Z,-1.30
2018-02-21T08:54:47.877Z,-1.20
2018-02-21T08:57:15.770Z,-1.20
2018-02-21T08:59:43.404Z,-1.20
2018-02-21T09:02:11.001Z,-1.10
2018-02-21T09:04:38.568Z,-0.90
2018-02-21T09:07:06.933Z,-0.90
2018-02-21T09:09:34.565Z,-0.90
2018-02-21T09:12:02.157Z,-0.80
2018-02-21T09:14:29.794Z,-0.70
2018-02-21T09:16:57.354Z,-0.60
2018-02-21T09:19:24.941Z,-0.50
2018-02-21T09:21:53.318Z,-0.40
2018-02-21T09:24:21.682Z,-0.30
2018-02-21T09:26:49.254Z,-0.30
2018-02-21T09:29:17.637Z,-0.10
2018-02-21T09:31:46.018Z,-0.10
2018-02-21T09:34:14.338Z,0.00
2018-02-21T09:36:41.939Z,0.00
2018-02-21T09:39:09.508Z,0.20
2018-02-21T09:41:38.132Z,0.30
2018-02-21T09:44:05.690Z,0.30
2018-02-21T09:46:33.263Z,0.40
2018-02-21T09:49:00.902Z,0.50
2018-02-21T09:51:28.488Z,0.60
2018-02-21T09:53:56.062Z,0.50
2018-02-21T09:56:24.106Z,0.70
2018-02-21T09:58:51.663Z,0.70
2018-02-21T10:01:19.237Z,0.60
2018-02-21T10:03:46.838Z,0.70
2018-02-21T10:06:14.765Z,0.80
2018-02-21T10:08:42.352Z,0.80
2018-02-21T10:11:09.960Z,0.90
2018-02-21T10:13:37.514Z,1.00
2018-02-21T10:16:05.066Z,1.00
2018-02-21T10:18:32.660Z,1.20
2018-02-21T10:21:01.764Z,1.50
2018-02-21T10:23:29.446Z,1.50
2018-02-21T10:25:57.817Z,1.60
2018-02-21T10:28:26.150Z,1.80
2018-02-21T10:30:54.210Z,1.70
2018-02-21T10:33:21.779Z,1.90
2018-02-21T10:35:49.509Z,2.00
2018-02-21T10:38:17.855Z,2.20
2018-02-21T10:40:45.415Z,2.10
2018-02-21T10:43:13.029Z,2.30
2018-02-21T10:45:40.645Z,2.40
2018-02-21T10:48:08.974Z,2.70
2018-02-21T10:50:37.324Z,2.70
2018-02-21T10:53:04.940Z,2.70
2018-02-21T10:55:32.518Z,2.70
2018-02-21T10:58:00.843Z,3.00
2018-02-21T11:00:34.063Z,2.90
2018-02-21T11:03:01.652Z,2.90
2018-02-21T11:05:31.191Z,3.10
2018-02-21T11:07:58.805Z,3.00
2018-02-21T11:10:30.413Z,3.30
2018-02-21T11:12:57.982Z,3.20
2018-02-21T11:15:25.609Z,3.40
2018-02-21T11:17:53.193Z,3.50
2018-02-21T11:20:20.759Z,3.50
2018-02-21T11:22:48.329Z,3.60
2018-02-21T11:25:16.395Z,3.80
2018-02-21T11:27:43.977Z,3.80
2018-02-21T11:30:13.201Z,3.90
2018-02-21T11:32:40.795Z,3.90
2018-02-21T11:35:08.372Z,4.00
2018-02-21T11:37:36.102Z,4.20
2018-02-21T11:40:03.683Z,4.30
2018-02-21T11:42:31.240Z,4.40
2018-02-21T11:44:58.824Z,4.60
2018-02-21T11:47:27.898Z,5.10
2018-02-21T11:49:55.612Z,5.10
2018-02-21T11:52:24.119Z,5.50
2018-02-21T11:54:51.705Z,5.40
2018-02-21T11:57:19.279Z,5.60
2018-02-21T11:59:47.648Z,5.70
2018-02-21T12:02:15.250Z,5.60
2018-02-21T12:04:43.886Z,5.60
2018-02-21T12:07:12.374Z,5.50
2018-02-21T12:09:40.832Z,5.40
2018-02-21T12:12:08.443Z,5.30
2018-02-21T12:14:37.213Z,5.20
2018-02-21T12:17:04.787Z,5.20
2018-02-21T12:19:33.128Z,5.00
2018-02-21T12:22:00.757Z,4.90
2018-02-21T12:24:28.371Z,5.10
2018-02-21T12:26:56.782Z,5.90
2018-02-21T12:29:24.630Z,5.80
2018-02-21T12:32:08.085Z,7.00
2018-02-21T12:34:35.692Z,6.90
2018-02-21T12:37:03.314Z,7.10
2018-02-21T12:39:36.546Z,7.40
2018-02-21T12:42:04.178Z,7.20
2018-02-21T12:44:31.754Z,7.20
2018-02-21T12:46:59.346Z,6.60
2018-02-21T12:49:27.679Z,5.90
2018-02-21T12:51:55.237Z,5.90
2018-02-21T12:54:22.861Z,5.90
2018-02-21T12:56:50.592Z,6.00
2018-02-21T12:59:18.070Z,6.10
2018-02-21T13:01:46.435Z,6.30
2018-02-21T13:04:14.776Z,6.30
2018-02-21T13:06:42.349Z,6.20
2018-02-21T13:09:09.964Z,6.10
2018-02-21T13:11:37.536Z,6.20
2018-02-21T13:14:05.327Z,6.00
2018-02-21T13:16:32.945Z,6.10
2018-02-21T13:19:00.529Z,6.90
2018-02-21T13:21:28.094Z,7.70
2018-02-21T13:23:55.946Z,7.80
2018-02-21T13:26:23.494Z,7.60
2018-02-21T13:28:51.062Z,7.90
2018-02-21T13:31:18.690Z,8.40
2018-02-21T13:33:47.098Z,7.90
2018-02-21T13:36:14.941Z,7.80
2018-02-21T13:38:42.484Z,7.50
2018-02-21T13:41:10.826Z,7.20
2018-02-21T13:43:38.446Z,7.20
2018-02-21T13:46:06.015Z,7.30
2018-02-21T13:48:33.577Z,7.30
2018-02-21T13:51:01.382Z,7.60
2018-02-21T13:53:28.942Z,8.00
2018-02-21T13:55:56.508Z,8.70
2018-02-21T13:58:25.114Z,9.70
2018-02-21T14:00:52.667Z,9.60
2018-02-21T14:03:21.049Z,10.10
2018-02-21T14:05:49.666Z,10.10
2018-02-21T14:08:17.245Z,10.10
2018-02-21T14:10:44.799Z,10.10
2018-02-21T14:13:12.432Z,10.00
2018-02-21T14:15:40.023Z,10.00
2018-02-21T14:18:07.587Z,9.50
2018-02-21T14:20:35.189Z,9.40
2018-02-21T14:23:02.748Z,9.80
2018-02-21T14:25:30.329Z,10.10
2018-02-21T14:27:57.950Z,9.90
2018-02-21T14:30:26.265Z,9.40
2018-02-21T14:32:53.810Z,9.30
2018-02-21T14:35:21.786Z,9.30
2018-02-21T14:37:49.358Z,8.90
2018-02-21T14:40:16.981Z,9.00
2018-02-21T14:42:44.569Z,9.10
2018-02-21T14:45:12.200Z,9.30
2018-02-21T14:47:40.607Z,10.50
2018-02-21T14:50:08.507Z,10.40
2018-02-21T14:52:36.366Z,10.60
2018-02-21T14:55:03.932Z,10.40
2018-02-21T14:57:31.512Z,10.80
2018-02-21T14:59:59.275Z,10.40
2018-02-21T15:02:26.876Z,10.40
2018-02-21T15:04:54.455Z,9.90
2018-02-21T15:07:22.069Z,9.40
2018-02-21T15:09:50.425Z,8.40
2018-02-21T15:12:18.959Z,8.00
2018-02-21T15:14:46.834Z,7.90
2018-02-21T15:17:14.405Z,7.50
2018-02-21T15:19:42.044Z,7.10
2018-02-21T15:22:09.656Z,6.80
2018-02-21T15:24:38.001Z,6.60
2018-02-21T15:27:05.577Z,6.50
2018-02-21T15:29:33.169Z,6.50
2018-02-21T15:32:00.735Z,6.40
2018-02-21T15:34:28.296Z,6.30
2018-02-21T15:36:55.921Z,6.10
2018-02-21T15:39:23.513Z,5.90
2018-02-21T15:41:51.096Z,5.80
2018-02-21T15:44:18.957Z,5.70
2018-02-21T15:46:46.542Z,5.60
2018-02-21T15:49:14.140Z,5.50
2018-02-21T15:51:42.503Z,5.30
2018-02-21T15:54:10.835Z,5.10
2018-02-21T15:56:38.430Z,5.00
2018-02-21T15:59:07.826Z,4.60
2018-02-21T16:01:35.453Z,4.60
2018-02-21T16:04:03.214Z,4.40
2018-02-21T16:06:31.061Z,4.30
2018-02-21T16:08:58.654Z,4.10
2018-02-21T16:11:26.256Z,3.90
2018-02-21T16:13:54.643Z,3.80
2018-02-21T16:16:23.028Z,3.70
2018-02-21T16:18:50.718Z,3.70
2018-02-21T16:21:18.291Z,3.60
2018-02-21T16:23:45.891Z,3.50
2018-02-21T16:26:14.619Z,3.30
2018-02-21T16:28:42.195Z,3.20
2018-02-21T16:31:09.776Z,3.10
2018-02-21T16:33:37.955Z,3.00
2018-02-21T16:36:05.542Z,2.90
2018-02-21T16:38:33.870Z,2.70
2018-02-21T16:41:01.474Z,2.60
2018-02-21T16:43:29.826Z,2.40
2018-02-21T16:45:57.676Z,2.40
2018-02-21T16:48:25.263Z,2.30
2018-02-21T16:50:52.843Z,2.20
2018-02-21T16:53:21.208Z,1.80
2018-02-21T16:55:49.581Z,1.50
2018-02-21T16:58:17.915Z,1.40
2018-02-21T17:00:45.522Z,1.30
2018-02-21T17:03:13.188Z,1.20
2018-02-21T17:05:41.770Z,0.90
2018-02-21T17:08:10.131Z,0.90
2018-02-21T17:10:37.734Z,0.80
2018-02-21T17:13:05.307Z,0.80
2018-02-21T17:15:33.169Z,0.60
2018-02-21T17:18:00.745Z,0.50
2018-02-21T17:20:28.306Z,0.40
2018-02-21T17:22:55.916Z,0.20
2018-02-21T17:25:24.248Z,0.00
2018-02-21T17:27:52.149Z,-0.10
2018-02-21T17:30:20.490Z,0.10
2018-02-21T17:32:48.098Z,0.00
2018-02-21T17:35:16.823Z,0.10
2018-02-21T17:37:44.380Z,0.00
2018-02-21T17:40:12.344Z,0.30
2018-02-21T17:42:39.907Z,0.30
2018-02-21T17:45:07.472Z,0.30
2018-02-21T17:47:35.080Z,0.20
2018-02-21T17:50:03.429Z,0.20
2018-02-21T17:52:31.398Z,0.20
2018-02-21T17:54:59.005Z,0.10
2018-02-21T17:57:26.575Z,-0.10
2018-02-21T17:59:54.184Z,0.20
2018-02-21T18:02:21.754Z,0.40
2018-02-21T18:04:50.135Z,0.50
2018-02-21T18:07:18.476Z,0.50
2018-02-21T18:09:46.033Z,0.50
2018-02-21T18:12:13.635Z,0.50
2018-02-21T18:14:41.957Z,0.40
2018-02-21T18:17:09.551Z,0.40
2018-02-21T18:19:37.915Z,0.30
2018-02-21T18:22:05.534Z,0.20
2018-02-21T18:24:33.121Z,0.30
2018-02-21T18:27:00.920Z,0.30
2018-02-21T18:29:29.282Z,0.00
2018-02-21T18:31:56.846Z,0.00
2018-02-21T18:34:24.439Z,-0.20
2018-02-21T18:36:52.060Z,-0.30
2018-02-21T18:39:19.691Z,-0.30
2018-02-21T18:41:47.285Z,-0.40
2018-02-21T18:44:15.642Z,-0.70
2018-02-21T18:46:43.279Z,-0.80
2018-02-21T18:49:10.895Z,-0.90
2018-02-21T18:51:39.238Z,-1.10
2018-02-21T18:54:06.847Z,-1.20
2018-02-21T18:56:34.480Z,-1.20
2018-02-21T18:59:02.834Z,-1.30
2018-02-21T19:01:30.416Z,-1.40
2018-02-21T19:03:57.992Z,-1.30
2018-02-21T19:06:26.377Z,-0.90
2018-02-21T19:08:54.725Z,-0.80
2018-02-21T19:11:22.310Z,-0.90
2018-02-21T19:13:50.689Z,-1.20
2018-02-21T19:16:18.298Z,-1.30
2018-02-21T19:18:45.902Z,-1.20
2018-02-21T19:21:14.325Z,-1.40
2018-02-21T19:23:41.908Z,-1.40
2018-02-21T19:26:09.534Z,-1.10
2018-02-21T19:28:37.110Z,-0.90
2018-02-21T19:31:04.711Z,-0.70
2018-02-21T19:33:33.052Z,-0.70
2018-02-21T19:36:00.641Z,-0.80
2018-02-21T19:38:29.913Z,-0.90
2018-02-21T19:40:57.498Z,-0.90
2018-02-21T19:43:25.248Z,-0.90
2018-02-21T19:45:52.825Z,-0.80
2018-02-21T19:48:21.173Z,-1.00
2018-02-21T19:50:48.783Z,-1.10
2018-02-21T19:53:16.366Z,-1.20
2018-02-21T19:55:43.997Z,-1.50
2018-02-21T19:58:12.328Z,-1.50
2018-02-21T20:00:39.939Z,-1.50
2018-02-21T20:03:07.594Z,-1.60
2018-02-21T20:05:36.017Z,-1.70
2018-02-21T20:08:03.592Z,-1.70
2018-02-21T20:10:31.216Z,-1.80
2018-02-21T20:12:58.786Z,-1.80
2018-02-21T20:15:26.934Z,-1.80
2018-02-21T20:17:54.582Z,-1.60
2018-02-21T20:20:22.212Z,-1.60
2018-02-21T20:22:50.062Z,-1.50
2018-02-21T20:25:17.650Z,-1.60
2018-02-21T20:27:45.995Z,-1.70
2018-02-21T20:30:13.634Z,-1.80
2018-02-21T20:32:41.947Z,-1.90
2018-02-21T20:35:09.845Z,-1.90
2018-02-21T20:37:38.190Z,-2.10
2018-02-21T20:40:05.768Z,-2.10
2018-02-21T20:42:33.362Z,-2.10
2018-02-21T20:45:00.954Z,-2.10
2018-02-21T20:47:28.566Z,-2.20
2018-02-21T20:49:56.897Z,-2.20
2018-02-21T20:52:24.491Z,-2.30
2018-02-21T20:54:52.872Z,-2.10
2018-02-21T20:57:21.200Z,-2.00
2018-02-21T20:59:48.761Z,-2.10
2018-02-21T21:02:16.367Z,-1.90
2018-02-21T21:04:44.745Z,-1.80
2018-02-21T21:07:13.270Z,-1.80
2018-02-21T21:09:41.275Z,-1.90
2018-02-21T21:12:08.975Z,-1.80
2018-02-21T21:14:36.617Z,-1.90
2018-02-21T21:17:04.958Z,-1.70
2018-02-21T21:19:32.597Z,-1.80
2018-02-21T21:22:00.195Z,-1.60
2018-02-21T21:24:28.649Z,-1.50
2018-02-21T21:26:56.271Z,-1.50
2018-02-21T21:29:23.857Z,-1.50
2018-02-21T21:31:51.475Z,-1.60
2018-02-21T21:34:19.818Z,-1.70
2018-02-21T21:36:47.401Z,-1.80
2018-02-21T21:39:15.793Z,-1.70
2018-02-21T21:41:44.125Z,-1.60
2018-02-21T21:44:12.100Z,-1.70
2018-02-21T21:46:40.643Z,-1.60
2018-02-21T21:49:08.245Z,-1.70
2018-02-21T21:51:35.847Z,-1.90
2018-02-21T21:54:03.433Z,-1.90
2018-02-21T21:56:31.051Z,-1.80
2018-02-21T21:58:59.388Z,-1.70
2018-02-21T22:01:26.985Z,-1.70
2018-02-21T22:03:55.398Z,-1.60
2018-02-21T22:06:22.988Z,-1.70
2018-02-21T22:08:50.617Z,-1.50
2018-02-21T22:11:18.224Z,-1.50
2018-02-21T22:13:46.572Z,-1.60
2018-02-21T22:16:14.322Z,-1.70
2018-02-21T22:18:41.934Z,-1.70
2018-02-21T22:21:10.288Z,-1.70
2018-02-21T22:23:37.880Z,-1.80
2018-02-21T22:26:06.269Z,-1.70
2018-02-21T22:28:33.850Z,-1.80
2018-02-21T22:31:01.507Z,-1.70
2018-02-21T22:33:29.108Z,-1.70
2018-02-21T22:35:57.499Z,-1.70
2018-02-21T22:38:26.132Z,-1.70
2018-02-21T22:40:53.709Z,-1.80
2018-02-21T22:43:21.271Z,-1.60
2018-02-21T22:45:48.878Z,-1.70
2018-02-21T22:48:17.217Z,-1.70
2018-02-21T22:50:44.800Z,-1.70
2018-02-21T22:53:12.748Z,-1.70
2018-02-21T22:55:40.324Z,-1.70
2018-02-21T22:58:07.900Z,-1.70
2018-02-21T23:00:36.280Z,-1.70
2018-02-21T23:03:04.601Z,-1.80
2018-02-21T23:05:32.188Z,-1.80
2018-02-21T23:08:00.866Z,-1.80
2018-02-21T23:10:28.453Z,-1.90
2018-02-21T23:12:56.772Z,-1.70
2018-02-21T23:15:24.404Z,-1.70
2018-02-21T23:17:51.979Z,-1.80
2018-02-21T23:20:19.586Z,-1.80
2018-02-21T23:22:47.181Z,-1.90
2018-02-21T23:25:15.548Z,-2.00
2018-02-21T23:27:43.877Z,-1.90
2018-02-21T23:30:11.472Z,-1.90
2018-02-21T23:32:39.851Z,-1.90
2018-02-21T23:35:07.442Z,-1.90
2018-02-21T23:37:35.035Z,-1.80
2018-02-21T23:40:02.635Z,-1.70
2018-02-21T23:42:31.006Z,-2.10
2018-02-21T23:45:00.110Z,-2.20
2018-02-21T23:47:28.449Z,-2.20
2018-02-21T23:49:56.072Z,-2.30
2018-02-21T23:52:23.690Z,-2.40
2018-02-21T23:54:51.302Z,-2.40
2018-02-21T23:57:18.931Z,-2.40
2018-02-21T23:59:47.277Z,-2.40
